createdAt,value
2018-02-01T00:00:26.547Z,90.20
2018-02-01T00:02:54.738Z,90.00
2018-02-01T00:05:22.902Z,90.10
2018-02-01T00:07:51.099Z,90.10
2018-02-01T00:10:19.271Z,90.20
2018-02-01T00:12:47.430Z,90.10
2018-02-01T00:15:15.622Z,90.10
2018-02-01T00:17:43.780Z,89.40
2018-02-01T00:20:11.971Z,89.60
2018-02-01T00:22:40.173Z,89.70
2018-02-01T00:25:09.131Z,89.90
2018-02-01T00:27:37.335Z,89.90
2018-02-01T00:30:05.524Z,90.00
2018-02-01T00:32:34.474Z,90.10
2018-02-01T00:35:02.670Z,90.00
2018-02-01T00:37:30.864Z,89.90
2018-02-01T00:39:59.801Z,90.10
2018-02-01T00:42:27.995Z,90.10
2018-02-01T00:44:56.169Z,90.20
2018-02-01T00:47:24.333Z,90.30
2018-02-01T00:49:52.502Z,90.20
2018-02-01T00:52:20.716Z,90.30
2018-02-01T00:54:48.887Z,90.40
2018-02-01T00:57:17.079Z,90.50
2018-02-01T00:59:46.032Z,90.60
2018-02-01T01:02:14.233Z,90.60
2018-02-01T01:04:42.441Z,90.60
2018-02-01T01:07:10.742Z,90.70
2018-02-01T01:09:38.909Z,90.60
2018-02-01T01:12:07.080Z,90.60
2018-02-01T01:14:35.253Z,90.50
2018-02-01T01:17:03.452Z,90.40
2018-02-01T01:19:31.619Z,90.40
2018-02-01T01:21:59.795Z,90.50
2018-02-01T01:24:27.999Z,90.50
2018-02-01T01:26:56.181Z,90.40
2018-02-01T01:29:24.386Z,90.30
2018-02-01T01:31:52.569Z,89.90
2018-02-01T01:34:20.756Z,90.10
2018-02-01T01:36:48.927Z,90.10
2018-02-01T01:39:17.086Z,90.10
2018-02-01T01:41:45.277Z,90.20
2018-02-01T01:44:13.478Z,90.20
2018-02-01T01:46:41.669Z,90.60
2018-02-01T01:49:09.850Z,90.40
2018-02-01T01:51:38.032Z,90.40
2018-02-01T01:54:06.229Z,90.20
2018-02-01T01:56:35.161Z,90.30
2018-02-01T01:59:03.321Z,90.30
2018-02-01T02:01:31.506Z,90.30
2018-02-01T02:03:59.677Z,90.20
2018-02-01T02:06:27.889Z,90.20
2018-02-01T02:08:56.060Z,90.20
2018-02-01T02:11:24.217Z,90.20
2018-02-01T02:13:52.417Z,90.20
2018-02-01T02:16:20.611Z,90.10
2018-02-01T02:18:49.566Z,90.00
2018-02-01T02:21:17.729Z,90.00
2018-02-01T02:23:45.900Z,90.20
2018-02-01T02:26:14.078Z,90.50
2018-02-01T02:28:42.245Z,90.20
2018-02-01T02:31:10.471Z,90.10
2018-02-01T02:33:38.616Z,90.20
2018-02-01T02:36:06.791Z,90.20
2018-02-01T02:38:34.971Z,90.30
2018-02-01T02:41:03.142Z,90.20
2018-02-01T02:43:31.310Z,90.30
2018-02-01T02:46:00.069Z,90.40
2018-02-01T02:48:28.237Z,90.40
2018-02-01T02:50:56.407Z,90.30
2018-02-01T02:53:24.588Z,90.40
2018-02-01T02:55:52.786Z,90.50
2018-02-01T02:58:20.957Z,90.40
2018-02-01T03:00:49.128Z,90.40
2018-02-01T03:03:17.304Z,90.60
2018-02-01T03:05:45.459Z,90.70
2018-02-01T03:08:13.634Z,90.60
2018-02-01T03:10:41.814Z,90.70
2018-02-01T03:13:09.990Z,90.80
2018-02-01T03:15:38.164Z,90.80
2018-02-01T03:18:06.339Z,90.70
2018-02-01T03:20:34.529Z,90.80
2018-02-01T03:23:02.694Z,90.90
2018-02-01T03:25:30.869Z,90.70
2018-02-01T03:27:59.038Z,90.70
2018-02-01T03:30:27.234Z,90.70
2018-02-01T03:32:55.473Z,90.70
2018-02-01T03:35:23.633Z,90.60
2018-02-01T03:37:51.831Z,90.70
2018-02-01T03:40:20.023Z,90.70
2018-02-01T03:42:48.202Z,90.70
2018-02-01T03:45:16.365Z,90.60
2018-02-01T03:47:44.597Z,90.60
2018-02-01T03:50:13.541Z,90.40
2018-02-01T03:52:41.722Z,90.40
2018-02-01T03:55:09.893Z,90.20
2018-02-01T03:57:38.074Z,90.30
2018-02-01T04:00:07.011Z,90.40
2018-02-01T04:02:35.935Z,90.20
2018-02-01T04:05:04.127Z,90.20
2018-02-01T04:07:32.290Z,90.20
2018-02-01T04:10:00.458Z,90.20
2018-02-01T04:12:28.654Z,90.20
2018-02-01T04:14:56.842Z,90.20
2018-02-01T04:17:25.034Z,90.10
2018-02-01T04:19:53.987Z,90.10
2018-02-01T04:22:22.150Z,90.00
2018-02-01T04:24:50.343Z,90.10
2018-02-01T04:27:18.563Z,90.10
2018-02-01T04:29:47.498Z,90.00
2018-02-01T04:32:15.677Z,90.00
2018-02-01T04:34:43.866Z,89.60
2018-02-01T04:37:12.118Z,90.00
2018-02-01T04:39:40.302Z,90.00
2018-02-01T04:42:08.569Z,90.00
2018-02-01T04:44:36.746Z,90.00
2018-02-01T04:47:04.933Z,90.10
2018-02-01T04:49:33.105Z,90.10
2018-02-01T04:52:01.283Z,90.20
2018-02-01T04:54:29.498Z,90.20
2018-02-01T04:56:57.674Z,90.20
2018-02-01T04:59:26.660Z,90.30
2018-02-01T05:01:54.832Z,90.30
2018-02-01T05:04:23.041Z,90.70
2018-02-01T05:06:51.232Z,90.30
2018-02-01T05:09:19.433Z,90.10
2018-02-01T05:11:47.642Z,90.10
2018-02-01T05:14:16.589Z,90.40
2018-02-01T05:16:44.753Z,90.40
2018-02-01T05:19:12.978Z,90.30
2018-02-01T05:21:41.155Z,90.00
2018-02-01T05:24:10.102Z,89.70
2018-02-01T05:26:38.287Z,89.70
2018-02-01T05:29:06.468Z,89.70
2018-02-01T05:31:34.693Z,90.00
2018-02-01T05:34:02.858Z,89.90
2018-02-01T05:36:31.802Z,90.10
2018-02-01T05:38:59.980Z,90.10
2018-02-01T05:41:28.930Z,89.70
2018-02-01T05:43:57.102Z,89.70
2018-02-01T05:46:26.064Z,90.20
2018-02-01T05:48:54.235Z,90.10
2018-02-01T05:51:22.403Z,90.10
2018-02-01T05:53:50.601Z,90.10
2018-02-01T05:56:19.550Z,90.20
2018-02-01T05:58:47.731Z,90.10
2018-02-01T06:01:15.900Z,90.20
2018-02-01T06:03:44.863Z,90.10
2018-02-01T06:06:13.157Z,90.10
2018-02-01T06:08:41.517Z,89.80
2018-02-01T06:11:09.702Z,90.00
2018-02-01T06:13:37.925Z,90.10
2018-02-01T06:16:06.098Z,90.10
2018-02-01T06:18:34.285Z,90.30
2018-02-01T06:21:02.458Z,90.30
2018-02-01T06:23:30.619Z,90.30
2018-02-01T06:25:58.926Z,90.30
2018-02-01T06:28:28.006Z,90.40
2018-02-01T06:30:56.299Z,90.30
2018-02-01T06:33:25.540Z,90.20
2018-02-01T06:35:53.717Z,90.20
2018-02-01T06:38:21.897Z,90.10
2018-02-01T06:40:50.066Z,90.00
2018-02-01T06:43:18.237Z,90.00
2018-02-01T06:45:46.417Z,90.00
2018-02-01T06:48:14.581Z,90.00
2018-02-01T06:50:42.758Z,90.00
2018-02-01T06:53:10.977Z,89.90
2018-02-01T06:55:39.203Z,89.80
2018-02-01T06:58:07.451Z,89.50
2018-02-01T07:00:41.980Z,89.10
2018-02-01T07:03:10.217Z,88.90
2018-02-01T07:05:38.454Z,88.90
2018-02-01T07:08:06.674Z,89.30
2018-02-01T07:10:34.865Z,89.10
2018-02-01T07:13:03.856Z,88.90
2018-02-01T07:15:32.845Z,88.40
2018-02-01T07:18:01.055Z,88.40
2018-02-01T07:20:29.274Z,88.10
2018-02-01T07:22:57.493Z,88.30
2018-02-01T07:25:26.535Z,87.70
2018-02-01T07:27:54.821Z,87.60
2018-02-01T07:30:23.085Z,87.30
2018-02-01T07:32:51.303Z,87.30
2018-02-01T07:35:20.272Z,87.00
2018-02-01T07:37:48.457Z,86.90
2018-02-01T07:40:16.651Z,86.90
2018-02-01T07:42:45.650Z,86.30
2018-02-01T07:45:14.605Z,85.90
2018-02-01T07:47:42.789Z,85.90
2018-02-01T07:50:11.028Z,85.70
2018-02-01T07:52:39.217Z,85.40
2018-02-01T07:55:07.408Z,85.10
2018-02-01T07:57:35.577Z,85.00
2018-02-01T08:00:03.782Z,85.70
2018-02-01T08:02:31.972Z,84.90
2018-02-01T08:05:00.913Z,83.20
2018-02-01T08:07:29.543Z,83.20
2018-02-01T08:09:58.467Z,83.60
2018-02-01T08:12:26.629Z,83.60
2018-02-01T08:14:54.791Z,82.40
2018-02-01T08:17:23.735Z,81.90
2018-02-01T08:19:51.911Z,81.80
2018-02-01T08:22:20.078Z,81.90
2018-02-01T08:24:48.274Z,87.20
2018-02-01T08:27:16.446Z,83.40
2018-02-01T08:29:44.639Z,80.50
2018-02-01T08:32:12.846Z,79.70
2018-02-01T08:34:41.012Z,78.50
2018-02-01T08:37:09.179Z,77.70
2018-02-01T08:39:38.129Z,76.00
2018-02-01T08:42:06.295Z,75.90
2018-02-01T08:44:34.482Z,75.90
2018-02-01T08:47:04.178Z,74.40
2018-02-01T08:49:32.358Z,74.90
2018-02-01T08:52:00.519Z,74.80
2018-02-01T08:54:28.847Z,74.30
2018-02-01T08:56:57.782Z,73.80
2018-02-01T08:59:25.951Z,73.80
2018-02-01T09:01:54.116Z,73.80
2018-02-01T09:04:22.314Z,73.90
2018-02-01T09:06:50.483Z,73.80
2018-02-01T09:09:18.661Z,73.20
2018-02-01T09:11:46.838Z,73.90
2018-02-01T09:14:15.013Z,74.00
2018-02-01T09:16:43.209Z,73.70
2018-02-01T09:19:11.388Z,73.80
2018-02-01T09:21:39.550Z,73.90
2018-02-01T09:24:07.729Z,74.40
2018-02-01T09:26:35.897Z,74.90
2018-02-01T09:29:04.090Z,75.10
2018-02-01T09:31:32.278Z,75.50
2018-02-01T09:34:01.225Z,75.00
2018-02-01T09:36:29.401Z,75.00
2018-02-01T09:38:57.566Z,75.00
2018-02-01T09:41:25.744Z,75.00
2018-02-01T09:43:53.915Z,75.30
2018-02-01T09:46:22.102Z,75.40
2018-02-01T09:48:50.301Z,75.50
2018-02-01T09:51:18.470Z,75.90
2018-02-01T09:53:46.637Z,76.10
2018-02-01T09:56:14.843Z,75.30
2018-02-01T09:58:43.790Z,74.70
2018-02-01T10:01:11.999Z,74.60
2018-02-01T10:03:40.174Z,73.90
2018-02-01T10:06:08.342Z,73.00
2018-02-01T10:08:36.526Z,71.80
2018-02-01T10:11:04.701Z,71.30
2018-02-01T10:13:32.870Z,70.50
2018-02-01T10:16:01.052Z,68.50
2018-02-01T10:18:29.230Z,68.40
2018-02-01T10:20:58.164Z,68.50
2018-02-01T10:23:26.342Z,68.30
2018-02-01T10:25:54.533Z,68.30
2018-02-01T10:28:22.717Z,67.70
2018-02-01T10:30:50.886Z,66.20
2018-02-01T10:33:19.055Z,64.90
2018-02-01T10:35:47.254Z,62.10
2018-02-01T10:38:15.458Z,60.60
2018-02-01T10:40:44.438Z,58.90
2018-02-01T10:43:12.667Z,58.80
2018-02-01T10:45:40.797Z,58.50
2018-02-01T10:48:09.778Z,59.80
2018-02-01T10:50:37.926Z,59.70
2018-02-01T10:53:06.107Z,60.40
2018-02-01T10:55:34.286Z,60.80
2018-02-01T10:58:02.449Z,60.60
2018-02-01T11:00:30.624Z,61.10
2018-02-01T11:02:58.791Z,61.30
2018-02-01T11:05:26.973Z,61.10
2018-02-01T11:07:55.142Z,61.30
2018-02-01T11:10:23.305Z,61.70
2018-02-01T11:12:51.490Z,61.60
2018-02-01T11:15:19.689Z,61.00
2018-02-01T11:17:47.857Z,59.20
2018-02-01T11:20:16.019Z,57.40
2018-02-01T11:22:44.191Z,56.30
2018-02-01T11:25:12.358Z,55.70
2018-02-01T11:27:40.529Z,57.20
2018-02-01T11:30:08.706Z,57.90
2018-02-01T11:32:36.886Z,58.80
2018-02-01T11:35:05.041Z,59.60
2018-02-01T11:37:33.201Z,60.80
2018-02-01T11:40:01.374Z,61.40
2018-02-01T11:42:29.537Z,61.90
2018-02-01T11:44:58.466Z,63.50
2018-02-01T11:47:26.641Z,63.40
2018-02-01T11:49:54.836Z,64.10
2018-02-01T11:52:23.010Z,64.60
2018-02-01T11:54:51.180Z,65.20
2018-02-01T11:57:19.358Z,65.00
2018-02-01T11:59:47.526Z,64.10
2018-02-01T12:02:15.701Z,63.00
2018-02-01T12:04:43.883Z,64.20
2018-02-01T12:07:12.058Z,64.50
2018-02-01T12:09:40.217Z,65.30
2018-02-01T12:12:08.392Z,65.80
2018-02-01T12:14:36.565Z,66.40
2018-02-01T12:17:04.724Z,67.00
2018-02-01T12:19:32.881Z,67.40
2018-02-01T12:22:01.043Z,68.10
2018-02-01T12:24:29.981Z,69.00
2018-02-01T12:26:58.176Z,69.00
2018-02-01T12:29:26.393Z,68.90
2018-02-01T12:31:55.322Z,69.90
2018-02-01T12:34:23.495Z,69.80
2018-02-01T12:36:51.667Z,69.90
2018-02-01T12:39:19.938Z,70.00
2018-02-01T12:41:48.108Z,70.40
2018-02-01T12:44:16.267Z,69.50
2018-02-01T12:46:44.524Z,69.30
2018-02-01T12:49:12.781Z,69.20
2018-02-01T12:51:40.942Z,69.70
2018-02-01T12:54:09.130Z,69.30
2018-02-01T12:56:37.307Z,68.30
2018-02-01T12:59:05.477Z,68.30
2018-02-01T13:01:33.674Z,69.20
2018-02-01T13:04:02.606Z,68.90
2018-02-01T13:06:30.778Z,68.80
2018-02-01T13:08:59.022Z,69.10
2018-02-01T13:11:27.974Z,69.60
2018-02-01T13:13:56.138Z,69.50
2018-02-01T13:16:24.309Z,69.90
2018-02-01T13:18:52.468Z,70.20
2018-02-01T13:21:20.640Z,69.80
2018-02-01T13:23:48.841Z,69.90
2018-02-01T13:26:16.997Z,69.40
2018-02-01T13:28:45.222Z,68.60
2018-02-01T13:31:14.207Z,67.10
2018-02-01T13:33:42.367Z,67.00
2018-02-01T13:36:10.526Z,66.60
2018-02-01T13:38:38.731Z,66.20
2018-02-01T13:41:06.906Z,66.40
2018-02-01T13:43:35.083Z,66.00
2018-02-01T13:46:03.254Z,66.30
2018-02-01T13:48:31.434Z,66.90
2018-02-01T13:51:00.375Z,67.60
2018-02-01T13:53:28.543Z,67.50
2018-02-01T13:55:56.706Z,68.10
2018-02-01T13:58:24.872Z,68.30
2018-02-01T14:00:53.810Z,68.40
2018-02-01T14:03:21.983Z,68.30
2018-02-01T14:05:50.151Z,68.70
2018-02-01T14:08:18.317Z,69.20
2018-02-01T14:10:46.475Z,69.70
2018-02-01T14:13:14.647Z,70.20
2018-02-01T14:15:42.833Z,71.00
2018-02-01T14:18:10.993Z,72.40
2018-02-01T14:20:39.162Z,72.80
2018-02-01T14:23:07.339Z,72.70
2018-02-01T14:25:35.505Z,74.00
2018-02-01T14:28:04.591Z,74.20
2018-02-01T14:30:33.546Z,75.50
2018-02-01T14:33:01.713Z,75.50
2018-02-01T14:35:29.870Z,75.20
2018-02-01T14:37:58.026Z,75.70
2018-02-01T14:40:26.187Z,75.30
2018-02-01T14:42:55.158Z,76.70
2018-02-01T14:45:23.327Z,76.70
2018-02-01T14:47:51.513Z,77.20
2018-02-01T14:50:19.782Z,77.80
2018-02-01T14:52:47.964Z,78.80
2018-02-01T14:55:16.121Z,77.70
2018-02-01T14:57:44.274Z,78.10
2018-02-01T15:00:12.445Z,78.90
2018-02-01T15:02:40.614Z,79.00
2018-02-01T15:05:08.781Z,79.30
2018-02-01T15:07:36.952Z,78.90
2018-02-01T15:10:05.117Z,78.40
2018-02-01T15:12:33.301Z,77.60
2018-02-01T15:15:01.473Z,77.60
2018-02-01T15:17:29.631Z,77.90
2018-02-01T15:19:58.569Z,78.30
2018-02-01T15:22:26.728Z,78.30
2018-02-01T15:24:54.923Z,77.20
2018-02-01T15:27:23.117Z,77.50
2018-02-01T15:29:51.305Z,77.30
2018-02-01T15:32:20.236Z,78.00
2018-02-01T15:34:48.406Z,77.90
2018-02-01T15:37:16.565Z,77.30
2018-02-01T15:39:44.745Z,77.60
2018-02-01T15:42:12.902Z,77.80
2018-02-01T15:44:41.855Z,78.40
2018-02-01T15:47:10.052Z,78.20
2018-02-01T15:49:38.230Z,78.40
2018-02-01T15:52:06.397Z,78.40
2018-02-01T15:54:35.356Z,78.60
2018-02-01T15:57:03.573Z,78.50
2018-02-01T15:59:31.706Z,77.30
2018-02-01T16:01:59.875Z,77.60
2018-02-01T16:04:28.053Z,77.40
2018-02-01T16:06:56.213Z,78.00
2018-02-01T16:09:24.372Z,77.80
2018-02-01T16:11:52.534Z,78.00
2018-02-01T16:14:21.471Z,77.80
2018-02-01T16:16:49.638Z,77.80
2018-02-01T16:19:17.811Z,77.60
2018-02-01T16:21:45.998Z,77.70
2018-02-01T16:24:14.180Z,77.60
2018-02-01T16:26:42.339Z,77.60
2018-02-01T16:29:10.566Z,77.20
2018-02-01T16:31:39.499Z,77.30
2018-02-01T16:34:07.665Z,77.20
2018-02-01T16:36:35.832Z,77.60
2018-02-01T16:39:04.039Z,77.60
2018-02-01T16:41:32.194Z,77.70
2018-02-01T16:44:00.382Z,77.80
2018-02-01T16:46:28.553Z,77.60
2018-02-01T16:48:56.705Z,77.60
2018-02-01T18:13:22.620Z,77.40
2018-02-01T18:15:50.827Z,77.90
2018-02-01T18:18:19.018Z,77.90
2018-02-01T18:20:47.988Z,78.10
2018-02-01T18:23:16.162Z,78.10
2018-02-01T18:25:44.357Z,77.00
2018-02-01T18:28:13.295Z,78.10
2018-02-01T18:30:41.459Z,77.30
2018-02-01T18:33:09.626Z,77.60
2018-02-01T18:35:37.799Z,77.60
2018-02-01T18:38:05.992Z,77.90
2018-02-01T18:40:34.162Z,78.20
2018-02-01T18:43:02.347Z,78.60
2018-02-01T18:45:30.516Z,78.70
2018-02-01T18:47:58.746Z,78.80
2018-02-01T18:50:26.920Z,79.20
2018-02-01T18:52:55.867Z,79.30
2018-02-01T18:55:24.037Z,79.20
2018-02-01T18:57:52.211Z,79.30
2018-02-01T19:00:20.408Z,79.10
2018-02-01T19:02:48.585Z,79.30
2018-02-01T19:05:16.765Z,79.50
2018-02-01T19:07:44.943Z,79.70
2018-02-01T19:10:13.146Z,78.70
2018-02-01T19:12:42.118Z,75.60
2018-02-01T19:15:10.311Z,75.50
2018-02-01T19:17:39.314Z,74.90
2018-02-01T19:20:08.273Z,75.50
2018-02-01T19:22:36.470Z,75.50
2018-02-01T19:25:05.406Z,75.50
2018-02-01T19:27:33.607Z,75.40
2018-02-01T19:30:01.811Z,75.90
2018-02-01T19:32:30.760Z,75.70
2018-02-01T19:34:59.731Z,76.10
2018-02-01T19:37:27.917Z,76.00
2018-02-01T19:39:56.101Z,76.70
2018-02-01T19:42:24.282Z,77.30
2018-02-01T19:44:52.462Z,77.90
2018-02-01T19:47:20.684Z,78.30
2018-02-01T19:49:48.866Z,78.70
2018-02-01T19:52:17.038Z,79.50
2018-02-01T19:54:45.286Z,80.20
2018-02-01T19:57:13.483Z,80.30
2018-02-01T19:59:41.680Z,80.80
2018-02-01T20:02:09.855Z,81.00
2018-02-01T20:04:38.028Z,81.70
2018-02-01T20:07:06.209Z,81.40
2018-02-01T20:09:34.392Z,81.80
2018-02-01T20:12:02.607Z,81.60
2018-02-01T20:14:30.790Z,82.20
2018-02-01T20:16:59.727Z,82.70
2018-02-01T20:19:27.901Z,82.60
2018-02-01T20:21:57.100Z,82.50
2018-02-01T20:24:25.294Z,82.40
2018-02-01T20:26:53.477Z,82.50
2018-02-01T20:29:21.674Z,82.80
2018-02-01T20:31:49.879Z,82.90
2018-02-01T20:34:18.049Z,83.30
2018-02-01T20:36:46.226Z,83.20
2018-02-01T20:39:14.487Z,83.30
2018-02-01T20:41:43.443Z,83.40
2018-02-01T20:44:11.646Z,83.40
2018-02-01T20:46:40.591Z,83.70
2018-02-01T20:49:08.757Z,83.70
2018-02-01T20:51:36.925Z,83.50
2018-02-01T20:54:05.112Z,83.30
2018-02-01T20:56:33.278Z,83.50
2018-02-01T20:59:01.473Z,82.90
2018-02-01T21:01:29.652Z,83.30
2018-02-01T21:03:57.827Z,83.70
2018-02-01T21:06:25.996Z,83.00
2018-02-01T21:08:54.927Z,83.00
2018-02-01T21:11:23.873Z,83.50
2018-02-01T21:13:52.077Z,83.30
2018-02-01T21:16:20.241Z,83.50
2018-02-01T21:18:49.186Z,83.70
2018-02-01T21:21:17.384Z,83.70
2018-02-01T21:23:45.542Z,83.60
2018-02-01T21:26:13.724Z,83.40
2018-02-01T21:28:41.885Z,83.70
2018-02-01T21:31:10.047Z,84.00
2018-02-01T21:33:38.983Z,84.30
2018-02-01T21:36:07.185Z,84.20
2018-02-01T21:38:35.373Z,84.70
2018-02-01T21:41:03.564Z,84.90
2018-02-01T21:43:31.747Z,85.30
2018-02-01T21:45:59.979Z,85.30
2018-02-01T21:48:28.167Z,86.30
2018-02-01T21:50:56.342Z,86.50
2018-02-01T21:53:24.538Z,87.00
2018-02-01T21:55:53.480Z,86.40
2018-02-01T21:58:21.641Z,86.40
2018-02-01T22:00:49.798Z,86.40
2018-02-01T22:03:18.002Z,87.60
2018-02-01T22:05:46.171Z,87.60
2018-02-01T22:08:14.339Z,87.90
2018-02-01T22:10:42.506Z,88.80
2018-02-01T22:13:10.699Z,88.80
2018-02-01T22:15:38.867Z,88.60
2018-02-01T22:18:07.043Z,88.10
2018-02-01T22:20:35.224Z,88.50
2018-02-01T22:23:03.459Z,87.90
2018-02-01T22:25:31.639Z,88.70
2018-02-01T22:27:59.822Z,88.70
2018-02-01T22:30:27.986Z,87.40
2018-02-01T22:32:56.148Z,87.60
2018-02-01T22:35:25.083Z,90.40
2018-02-01T22:37:53.243Z,90.40
2018-02-01T22:40:21.440Z,89.60
2018-02-01T22:42:49.644Z,89.00
2018-02-01T22:45:17.828Z,89.10
2018-02-01T22:47:46.788Z,89.00
2018-02-01T22:50:14.950Z,88.90
2018-02-01T22:52:43.120Z,89.20
2018-02-01T22:55:11.286Z,89.90
2018-02-01T22:57:39.445Z,89.30
2018-02-01T23:00:07.613Z,88.80
2018-02-01T23:02:36.529Z,90.00
2018-02-01T23:05:04.698Z,89.80
2018-02-01T23:07:32.870Z,90.00
2018-02-01T23:10:01.028Z,90.20
2018-02-01T23:12:29.200Z,90.00
2018-02-01T23:14:57.373Z,89.80
2018-02-01T23:17:26.327Z,89.90
2018-02-01T23:19:54.503Z,89.90
2018-02-01T23:22:22.666Z,89.40
2018-02-01T23:24:50.834Z,89.80
2018-02-01T23:27:19.012Z,89.80
2018-02-01T23:29:47.179Z,89.60
2018-02-01T23:32:15.364Z,89.80
2018-02-01T23:34:44.329Z,89.80
2018-02-01T23:37:12.542Z,89.70
2018-02-01T23:39:40.702Z,90.00
2018-02-01T23:42:08.880Z,90.20
2018-02-01T23:44:37.051Z,89.60
2018-02-01T23:47:05.229Z,90.10
2018-02-01T23:49:33.403Z,90.10
2018-02-01T23:52:02.334Z,89.70
2018-02-01T23:54:31.272Z,89.80
2018-02-01T23:56:59.438Z,89.70
2018-02-01T23:59:27.625Z,89.70
